Time;durP1;ratioP1;P1;durP2;ratioP2;P2;SDS_P1;SDS_P2;PMS_P1;PMS_P2;Temp;Humidity;BMP_temperature;BMP_pressure;BME280_temperature;BME280_humidity;BME280_pressure;Samples;Min_cycle;Max_cycle;Signal;HPM_P1;HPM_P2
2023/03/17 00:01:35;;;;;;;6.82;5.40;;;;;;;6.61;78.65;100117.53;6096407;23;20018;-91
2023/03/17 00:04:12;;;;;;;9.48;5.95;;;;;;;6.86;79.07;100167.50;6076480;23;20633;-90
2023/03/17 00:06:47;;;;;;;8.45;5.50;;;;;;;6.84;78.29;100158.78;6071933;23;20042;-93
2023/03/17 00:09:23;;;;;;;8.82;6.10;;;;;;;6.94;78.34;100170.69;6098721;23;20018;-91
2023/03/17 00:12:19;;;;;;;8.38;5.90;;;;;;;6.41;77.98;100083.16;6102289;23;20019;-91
2023/03/17 00:14:48;;;;;;;8.38;6.00;;;;;;;6.83;78.19;100152.66;6104483;23;20030;-93
2023/03/17 00:17:30;;;;;;;9.50;6.47;;;;;;;6.63;78.05;100113.03;6076100;23;20045;-92
2023/03/17 00:20:26;;;;;;;8.23;5.80;;;;;;;6.58;78.13;100118.47;6077764;23;20023;-92
2023/03/17 00:23:21;;;;;;;9.82;6.35;;;;;;;6.68;78.18;100135.66;6106056;23;20097;-89
2023/03/17 00:25:53;;;;;;;8.30;6.00;;;;;;;6.77;78.61;100157.31;6094659;23;20023;-91
2023/03/17 00:28:26;;;;;;;9.27;6.15;;;;;;;6.75;78.46;100157.34;6045591;23;20106;-91
2023/03/17 00:31:21;;;;;;;7.35;5.47;;;;;;;6.77;78.67;100154.69;6074242;23;20022;-90
2023/03/17 00:33:59;;;;;;;8.77;5.60;;;;;;;6.77;78.69;100146.78;6051172;23;20416;-91
2023/03/17 00:36:33;;;;;;;6.55;5.30;;;;;;;6.75;78.36;100151.22;6075003;23;20018;-93
2023/03/17 00:39:02;;;;;;;8.13;5.78;;;;;;;6.74;78.29;100149.50;6072537;23;20029;-90
2023/03/17 00:41:38;;;;;;;9.52;5.95;;;;;;;6.73;78.65;100146.03;6072925;23;20090;-91
2023/03/17 00:44:19;;;;;;;8.43;5.78;;;;;;;6.68;78.56;100138.28;6073170;23;20025;-92
2023/03/17 00:46:56;;;;;;;9.88;6.03;;;;;;;6.70;79.49;100148.75;6100887;23;20023;-92
2023/03/17 00:49:38;;;;;;;7.38;5.57;;;;;;;6.71;79.58;100144.34;6089952;23;20015;-94
2023/03/17 00:52:12;;;;;;;9.52;5.90;;;;;;;6.67;78.76;100135.69;6091729;23;20022;-94
2023/03/17 00:54:44;;;;;;;8.32;5.22;;;;;;;6.64;79.31;100139.28;6065507;23;20018;-92
2023/03/17 00:57:29;;;;;;;8.02;5.38;;;;;;;6.61;79.53;100144.66;6081489;23;20019;-91
2023/03/17 01:00:23;;;;;;;7.90;5.55;;;;;;;6.57;80.12;100139.56;6080572;23;20026;-91
2023/03/17 01:03:11;;;;;;;8.85;6.00;;;;;;;6.58;79.74;100147.41;6077640;23;20049;-91
2023/03/17 01:05:48;;;;;;;9.02;5.80;;;;;;;6.54;79.86;100147.56;6076583;23;20046;-91
2023/03/17 01:08:30;;;;;;;10.02;5.65;;;;;;;6.46;80.18;100132.03;6052761;23;20373;-92
2023/03/17 01:11:07;;;;;;;7.13;5.43;;;;;;;6.47;80.36;100127.63;6102812;23;20059;-92
2023/03/17 01:13:41;;;;;;;8.48;5.50;;;;;;;6.42;80.62;100116.44;6087287;23;20053;-92
2023/03/17 01:16:20;;;;;;;7.93;5.20;;;;;;;6.42;81.11;100122.56;6089768;23;20049;-93
2023/03/17 01:18:47;;;;;;;10.13;5.18;;;;;;;6.18;81.40;100082.16;6088033;23;20038;-92
2023/03/17 01:21:34;;;;;;;7.28;5.28;;;;;;;6.28;81.18;100101.13;6093243;23;20055;-93
2023/03/17 01:24:03;;;;;;;8.27;5.97;;;;;;;6.33;81.62;100104.44;6093317;23;20026;-93
2023/03/17 01:26:59;;;;;;;8.40;5.63;;;;;;;6.36;81.42;100112.22;6093663;23;20068;-94
2023/03/17 01:29:36;;;;;;;8.68;6.15;;;;;;;6.35;81.72;100105.25;6107575;23;20030;-92
2023/03/17 01:32:03;;;;;;;8.05;5.60;;;;;;;6.14;81.76;100074.44;6098867;23;20011;-93
2023/03/17 01:34:38;;;;;;;7.70;5.68;;;;;;;6.20;81.31;100075.09;6075982;23;20042;-92
2023/03/17 01:37:13;;;;;;;8.13;5.65;;;;;;;6.34;81.05;100093.00;6119767;23;20018;-92
2023/03/17 01:39:58;;;;;;;7.70;5.50;;;;;;;6.27;80.87;100081.00;6117175;23;20026;-92
2023/03/17 01:42:28;;;;;;;7.18;5.07;;;;;;;6.30;81.06;100086.13;6090827;23;20053;-91
2023/03/17 01:45:52;;;;;;;8.27;5.50;;;;;;;6.33;81.76;100092.16;6073086;23;20048;-92
2023/03/17 01:48:27;;;;;;;7.93;5.85;;;;;;;6.23;80.67;100048.69;6089030;23;20022;-92
2023/03/17 01:50:57;;;;;;;8.60;6.03;;;;;;;6.47;79.78;100089.03;6087711;23;20026;-91
2023/03/17 01:53:32;;;;;;;8.60;5.95;;;;;;;6.23;79.70;100050.47;6083282;23;20101;-91
2023/03/17 01:56:08;;;;;;;8.52;5.65;;;;;;;6.23;79.83;100056.56;6031959;23;20026;-92
2023/03/17 01:58:36;;;;;;;7.82;5.68;;;;;;;6.31;80.87;100078.19;6106328;23;20014;-92
2023/03/17 02:01:06;;;;;;;7.60;5.50;;;;;;;6.19;81.32;100068.09;6103681;23;20018;-93
2023/03/17 02:03:41;;;;;;;7.63;6.00;;;;;;;5.84;81.73;100014.06;6061163;23;20027;-91
2023/03/17 02:06:10;;;;;;;10.15;5.68;;;;;;;6.15;82.16;100078.78;6083930;23;20042;-90
2023/03/17 02:08:47;;;;;;;6.93;5.43;;;;;;;6.05;82.75;100064.22;6080934;23;20022;-92
2023/03/17 02:11:17;;;;;;;6.72;5.60;;;;;;;5.79;82.91;100034.41;6032027;23;20026;-90
2023/03/17 02:13:58;;;;;;;8.50;5.45;;;;;;;6.04;83.22;100073.03;6102486;23;20372;-89
2023/03/17 02:16:31;;;;;;;8.10;5.63;;;;;;;5.85;84.15;100059.59;6057405;23;20022;-90
2023/03/17 02:19:11;;;;;;;8.18;5.45;;;;;;;5.83;84.89;100064.91;6074521;23;20025;-90
2023/03/17 02:21:58;;;;;;;11.25;5.90;;;;;;;5.68;86.03;100039.13;6103401;23;20042;-90
2023/03/17 02:24:45;;;;;;;8.43;5.97;;;;;;;5.82;86.04;100063.22;6083435;23;20014;-89
2023/03/17 02:27:32;;;;;;;8.70;6.22;;;;;;;5.49;86.14;100017.88;6083228;23;20057;-91
2023/03/17 02:30:08;;;;;;;9.20;5.32;;;;;;;5.74;86.71;100065.22;6105244;23;20014;-91
2023/03/17 02:32:39;;;;;;;7.30;5.28;;;;;;;5.49;87.05;100038.03;6079376;23;20078;-92
2023/03/17 02:35:13;;;;;;;8.57;5.95;;;;;;;5.64;88.12;100079.56;6078106;23;20050;-92
2023/03/17 02:37:42;;;;;;;9.43;5.82;;;;;;;5.34;89.07;100038.50;6080164;23;20022;-93
2023/03/17 02:40:25;;;;;;;8.75;5.45;;;;;;;5.57;89.66;100073.63;6105912;23;20023;-93
2023/03/17 02:43:25;;;;;;;7.30;5.70;;;;;;;5.50;90.63;100066.88;6088040;23;20029;-92
2023/03/17 02:45:53;;;;;;;10.15;6.25;;;;;;;5.44;92.02;100058.31;6084417;23;20022;-91
2023/03/17 02:48:35;;;;;;;9.02;6.20;;;;;;;5.48;92.18;100049.44;6065651;23;20021;-92
2023/03/17 02:51:06;;;;;;;8.55;6.30;;;;;;;5.48;91.65;100031.91;6105466;23;20079;-91
2023/03/17 02:53:44;;;;;;;8.15;5.93;;;;;;;5.54;91.62;100025.59;6117569;23;20101;-92
2023/03/17 02:56:27;;;;;;;8.32;6.03;;;;;;;5.61;90.82;100037.63;6100266;23;20041;-92
2023/03/17 02:59:04;;;;;;;8.43;6.25;;;;;;;5.49;90.55;100010.00;6098144;23;20145;-91
2023/03/17 03:01:40;;;;;;;8.57;6.10;;;;;;;5.54;91.38;100018.56;6071462;23;20038;-92
2023/03/17 03:04:12;;;;;;;10.32;6.18;;;;;;;5.12;90.16;99942.06;6121174;23;20073;-91
2023/03/17 03:06:55;;;;;;;8.63;5.80;;;;;;;5.35;90.08;99985.97;6119694;23;20026;-90
2023/03/17 03:09:34;;;;;;;7.50;6.07;;;;;;;5.57;90.07;100036.84;6077343;23;20030;-91
2023/03/17 03:12:08;;;;;;;9.98;6.20;;;;;;;5.54;90.62;100034.31;6071224;23;20066;-92
2023/03/17 03:14:35;;;;;;;7.80;5.43;;;;;;;5.54;90.10;100046.59;6095088;23;20007;-92
2023/03/17 03:17:15;;;;;;;8.23;6.20;;;;;;;5.50;90.10;100045.88;6110602;23;20022;-91
2023/03/17 03:19:57;;;;;;;8.15;6.00;;;;;;;5.40;91.43;100038.31;6114742;23;20085;-93
2023/03/17 03:22:30;;;;;;;7.45;5.65;;;;;;;5.36;91.89;100032.28;6117949;23;20082;-91
2023/03/17 03:25:00;;;;;;;8.07;5.70;;;;;;;5.39;92.11;100040.06;6118145;23;20041;-91
2023/03/17 03:27:31;;;;;;;10.80;6.10;;;;;;;5.36;92.09;100036.66;6118811;23;20021;-91
2023/03/17 03:30:06;;;;;;;9.95;6.13;;;;;;;5.32;92.53;100035.94;6102058;23;20026;-91
2023/03/17 03:32:35;;;;;;;8.45;6.20;;;;;;;5.26;93.30;100033.47;6074415;23;20074;-93
2023/03/17 03:35:10;;;;;;;9.90;6.15;;;;;;;5.17;93.32;100020.66;6073967;23;20058;-94
2023/03/17 03:37:46;;;;;;;8.13;5.78;;;;;;;5.17;93.89;100029.41;6072021;23;20643;-91
2023/03/17 03:40:41;;;;;;;7.90;5.97;;;;;;;5.18;94.14;100041.63;6073664;23;20034;-91
2023/03/17 03:43:14;;;;;;;7.97;5.72;;;;;;;5.19;93.94;100051.22;6071744;23;20018;-90
2023/03/17 03:45:49;;;;;;;10.23;6.88;;;;;;;5.14;94.42;100039.97;6049847;23;20015;-92
2023/03/17 03:48:30;;;;;;;8.57;6.28;;;;;;;5.18;93.80;100059.13;6050844;23;20093;-91
2023/03/17 03:51:01;;;;;;;9.90;6.10;;;;;;;5.05;94.42;100027.13;6070620;23;20439;-91
2023/03/17 03:53:33;;;;;;;8.50;6.28;;;;;;;5.14;94.36;100047.84;6070739;23;20018;-92
2023/03/17 03:56:04;;;;;;;9.80;6.60;;;;;;;4.97;94.90;100015.16;6046199;23;20022;-92
2023/03/17 03:58:38;;;;;;;8.45;6.22;;;;;;;5.07;95.54;100035.81;6071331;23;20450;-91
2023/03/17 04:01:20;;;;;;;11.48;6.53;;;;;;;5.01;96.12;100032.53;6069838;23;20027;-92
2023/03/17 04:04:01;;;;;;;11.98;6.82;;;;;;;4.96;96.65;100027.41;6072380;23;20286;-91
2023/03/17 04:06:35;;;;;;;9.43;6.53;;;;;;;4.90;97.82;100017.09;6071496;23;20025;-90
2023/03/17 04:09:16;;;;;;;10.00;6.97;;;;;;;4.81;100.00;100025.25;6070729;23;20022;-89
2023/03/17 04:11:47;;;;;;;9.23;6.65;;;;;;;4.35;100.00;99982.00;6048839;23;20015;-90
2023/03/17 04:14:16;;;;;;;10.90;6.93;;;;;;;4.58;100.00;100036.38;6021837;23;20448;-90
2023/03/17 04:16:45;;;;;;;11.15;6.72;;;;;;;4.58;100.00;100044.25;5998181;23;20066;-91
2023/03/17 04:19:12;;;;;;;10.68;6.65;;;;;;;4.54;100.00;100047.88;6097126;23;20045;-92
2023/03/17 04:21:42;;;;;;;9.52;6.80;;;;;;;4.54;100.00;100034.78;6051006;23;20026;-91
2023/03/17 04:24:26;;;;;;;9.80;6.40;;;;;;;4.48;100.00;100025.31;6072666;23;20022;-91
2023/03/17 04:27:25;;;;;;;9.52;6.28;;;;;;;4.32;100.00;100024.00;6071164;23;20033;-93
2023/03/17 04:29:55;;;;;;;9.02;6.28;;;;;;;4.17;100.00;100008.69;6070361;23;20025;-90
2023/03/17 04:32:27;;;;;;;10.48;6.85;;;;;;;4.03;100.00;100000.34;6072932;23;20475;-91
2023/03/17 04:34:57;;;;;;;8.43;6.35;;;;;;;4.09;100.00;100021.16;6072836;23;20058;-91
2023/03/17 04:37:27;;;;;;;7.95;6.65;;;;;;;4.04;100.00;100028.28;6074370;23;20038;-92
2023/03/17 04:40:01;;;;;;;8.43;6.72;;;;;;;3.87;100.00;100008.63;6049345;23;20046;-91
2023/03/17 04:42:29;;;;;;;12.18;7.10;;;;;;;3.86;100.00;100014.75;6074109;23;20066;-92
2023/03/17 04:45:02;;;;;;;10.18;6.93;;;;;;;3.84;100.00;100028.78;6049944;23;20381;-92
2023/03/17 04:47:45;;;;;;;11.32;6.93;;;;;;;3.81;100.00;100026.22;6075868;23;20027;-92
2023/03/17 04:50:28;;;;;;;10.25;7.38;;;;;;;3.77;100.00;100024.63;6090109;23;20023;-91
2023/03/17 04:53:09;;;;;;;11.00;7.40;;;;;;;3.73;100.00;100028.19;6075100;23;20023;-92
2023/03/17 04:55:38;;;;;;;11.02;7.10;;;;;;;3.72;100.00;100021.25;6076561;23;20022;-92
2023/03/17 04:58:06;;;;;;;11.93;7.63;;;;;;;3.55;100.00;100011.19;6104564;23;20007;-92
2023/03/17 05:00:39;;;;;;;12.15;7.15;;;;;;;3.47;100.00;100013.97;6087836;23;20074;-91
2023/03/17 05:03:06;;;;;;;10.65;7.75;;;;;;;3.63;100.00;100058.09;6092351;23;20058;-93
2023/03/17 05:05:56;;;;;;;10.20;7.40;;;;;;;3.53;100.00;100028.69;6093343;23;20918;-93
2023/03/17 05:08:51;;;;;;;13.20;7.10;;;;;;;3.72;100.00;100048.28;6093915;23;20076;-93
2023/03/17 05:11:36;;;;;;;10.15;7.97;;;;;;;3.70;100.00;100051.84;6085373;23;20042;-91
2023/03/17 05:14:22;;;;;;;11.80;8.00;;;;;;;3.58;100.00;100034.69;6097099;23;20432;-92
2023/03/17 05:17:15;;;;;;;13.60;7.97;;;;;;;3.43;100.00;100025.44;6077200;23;20090;-92
2023/03/17 05:19:45;;;;;;;11.20;7.63;;;;;;;3.35;100.00;100014.25;6087658;23;20025;-92
2023/03/17 05:22:27;;;;;;;12.02;7.45;;;;;;;3.48;100.00;100041.00;6079762;23;20026;-90
2023/03/17 05:24:57;;;;;;;10.55;7.22;;;;;;;3.31;100.00;100014.38;6075780;23;20015;-90
2023/03/17 05:27:31;;;;;;;10.43;7.55;;;;;;;3.45;100.00;100046.34;6079944;23;20025;-90
2023/03/17 05:30:29;;;;;;;9.90;7.07;;;;;;;3.26;100.00;100022.34;6074282;23;20019;-89
2023/03/17 05:32:59;;;;;;;12.88;8.20;;;;;;;3.39;100.00;100049.09;6080849;23;20023;-92
2023/03/17 05:35:28;;;;;;;12.45;7.45;;;;;;;3.39;100.00;100049.09;6085200;23;20023;-92
2023/03/17 05:38:11;;;;;;;10.80;7.55;;;;;;;3.24;100.00;100034.59;6027276;23;20074;-92
2023/03/17 05:40:43;;;;;;;10.75;7.47;;;;;;;3.22;100.00;100036.38;6082004;23;20018;-92
2023/03/17 05:43:11;;;;;;;10.60;7.70;;;;;;;3.38;100.00;100074.41;6075259;23;20041;-93
2023/03/17 05:46:22;;;;;;;10.30;7.40;;;;;;;3.39;100.00;100067.41;6077698;23;20091;-91
2023/03/17 05:49:03;;;;;;;10.40;7.47;;;;;;;3.24;100.00;100042.44;6076388;23;20019;-91
2023/03/17 05:51:36;;;;;;;12.18;7.18;;;;;;;3.39;100.00;100075.25;6076631;23;20023;-92
2023/03/17 05:54:17;;;;;;;12.38;8.18;;;;;;;3.18;100.00;100039.97;6082918;23;20027;-91
2023/03/17 05:56:59;;;;;;;13.38;7.97;;;;;;;3.31;100.00;100072.81;6083054;23;20014;-92
2023/03/17 05:59:47;;;;;;;11.48;7.50;;;;;;;3.22;100.00;100044.25;6109904;23;20011;-94
2023/03/17 06:02:38;;;;;;;11.70;8.60;;;;;;;3.19;100.00;100052.16;6092221;23;20033;-95
2023/03/17 06:05:26;;;;;;;13.25;8.85;;;;;;;2.95;100.00;100000.41;6111018;23;20014;-93
2023/03/17 06:08:04;;;;;;;16.08;8.38;;;;;;;3.03;100.00;100003.69;6090500;23;20050;-95
2023/03/17 06:10:51;;;;;;;12.48;8.15;;;;;;;3.01;100.00;99997.63;6092943;23;20033;-94
2023/03/17 06:13:32;;;;;;;10.57;7.60;;;;;;;3.35;100.00;100050.03;6054673;23;20059;-93
2023/03/17 06:16:09;;;;;;;12.30;8.45;;;;;;;3.35;100.00;100052.66;6091231;23;20027;-94
2023/03/17 06:18:51;;;;;;;13.95;8.20;;;;;;;3.14;100.00;100022.63;6088825;23;20014;-94
2023/03/17 06:32:17;;;;;;;11.27;8.13;;;;;;;3.34;100.00;100004.69;5619599;22;15085496;-91
2023/03/17 06:34:54;;;;;;;16.33;8.30;;;;;;;3.22;100.00;99968.34;6271148;23;20027;-92
2023/03/17 06:37:48;;;;;;;12.93;8.02;;;;;;;3.32;100.00;99966.38;6267770;23;20016;-91
2023/03/17 06:40:37;;;;;;;14.60;8.90;;;;;;;3.76;100.00;100039.47;6217619;23;20023;-93
2023/03/17 06:43:09;;;;;;;12.02;8.55;;;;;;;3.64;100.00;100004.84;6249471;23;20024;-91
2023/03/17 06:45:57;;;;;;;14.85;8.90;;;;;;;3.83;100.00;100035.78;6252824;22;20316;-91
2023/03/17 06:56:48;;;;;;;16.40;9.38;;;;;;;4.37;100.00;100057.97;6272633;22;20027;-92
2023/03/17 06:59:21;;;;;;;14.05;8.35;;;;;;;4.40;100.00;100037.78;6250172;23;20363;-91
2023/03/17 07:01:53;;;;;;;14.68;8.65;;;;;;;4.76;100.00;100069.09;6246212;23;20016;-94
2023/03/17 07:04:24;;;;;;;11.75;8.13;;;;;;;5.00;100.00;100078.03;6229144;22;20019;-92
2023/03/17 07:07:23;;;;;;;12.23;8.32;;;;;;;5.26;100.00;100078.13;6233844;23;20043;-90
2023/03/17 07:09:54;;;;;;;12.15;7.88;;;;;;;5.26;100.00;100002.84;6241442;23;20016;-90
2023/03/17 07:12:42;;;;;;;11.27;7.72;;;;;;;5.98;100.00;100026.78;6223251;23;20016;-90
2023/03/17 07:15:33;;;;;;;10.25;7.65;;;;;;;6.41;97.44;100018.25;6224623;23;20027;-93
2023/03/17 07:18:32;;;;;;;13.50;7.78;;;;;;;7.01;88.99;100046.72;6232640;23;20082;-92
2023/03/17 07:21:01;;;;;;;11.57;7.70;;;;;;;7.36;87.44;100045.34;6239300;23;20036;-92
2023/03/17 07:23:37;;;;;;;12.50;7.65;;;;;;;7.62;82.02;100030.28;6266069;23;20016;-95
2023/03/17 07:26:22;;;;;;;13.82;7.95;;;;;;;8.05;82.01;100031.97;6222030;23;20305;-93
2023/03/17 07:29:09;;;;;;;11.70;8.10;;;;;;;8.46;78.57;100035.50;6243428;23;20016;-93
2023/03/17 07:31:48;;;;;;;10.70;7.03;;;;;;;8.76;73.48;100050.00;6235718;23;20024;-91
2023/03/17 07:34:31;;;;;;;10.63;7.38;;;;;;;8.81;70.19;100015.47;6263270;23;20031;-92
2023/03/17 07:37:16;;;;;;;11.05;7.32;;;;;;;9.21;68.75;100048.78;6239032;23;20027;-91
2023/03/17 07:40:05;;;;;;;11.13;7.55;;;;;;;9.20;66.05;100028.59;6242479;23;20031;-90
2023/03/17 07:42:32;;;;;;;12.77;7.35;;;;;;;9.47;65.25;100043.13;6239317;23;20020;-91
2023/03/17 07:45:14;;;;;;;11.73;7.75;;;;;;;9.41;65.75;100027.56;6259827;23;20031;-93
2023/03/17 07:48:03;;;;;;;9.13;6.70;;;;;;;9.56;64.90;100025.97;6239107;23;20068;-91
2023/03/17 07:50:42;;;;;;;10.52;6.75;;;;;;;9.58;66.99;100039.97;6237537;23;20044;-91
2023/03/17 07:53:28;;;;;;;9.63;6.57;;;;;;;9.45;63.57;99993.91;6237635;23;20032;-91
2023/03/17 07:56:00;;;;;;;10.10;6.90;;;;;;;9.53;64.22;99996.19;6262311;22;20123;-91
2023/03/17 07:58:40;;;;;;;10.27;6.32;;;;;;;9.67;64.50;100006.94;6233042;23;20020;-92
2023/03/17 08:01:08;;;;;;;10.00;7.30;;;;;;;9.63;62.77;100002.72;6229733;23;20012;-92
2023/03/17 08:03:47;;;;;;;9.70;6.65;;;;;;;9.46;64.81;100006.19;6229662;23;20107;-92
2023/03/17 08:06:30;;;;;;;10.63;7.13;;;;;;;9.81;63.05;100015.91;6229032;23;20016;-92
2023/03/17 08:08:57;;;;;;;9.45;6.35;;;;;;;10.10;61.80;100032.09;6214716;23;20070;-92
2023/03/17 08:11:39;;;;;;;10.75;6.82;;;;;;;10.23;61.65;100027.09;6136935;23;20045;-93
2023/03/17 08:14:23;;;;;;;11.18;6.55;;;;;;;10.49;59.88;100031.88;6166805;23;20017;-90
2023/03/17 08:16:55;;;;;;;8.90;6.43;;;;;;;10.15;58.97;100000.97;6170989;23;20013;-92
2023/03/17 08:19:37;;;;;;;9.35;6.70;;;;;;;9.79;60.21;99996.59;6150926;23;20044;-90
2023/03/17 08:22:23;;;;;;;7.85;5.78;;;;;;;9.63;61.35;99957.78;6173248;23;20030;-91
2023/03/17 08:24:57;;;;;;;8.00;6.47;;;;;;;9.98;59.37;99963.94;6150259;23;20025;-89
2023/03/17 08:27:35;;;;;;;11.25;6.60;;;;;;;10.08;59.03;99981.91;6149010;23;20028;-93
2023/03/17 08:30:07;;;;;;;7.68;6.10;;;;;;;10.41;59.10;99994.34;6147372;23;20014;-92
2023/03/17 08:32:38;;;;;;;8.07;6.03;;;;;;;10.19;58.08;99910.81;6172862;23;20014;-91
2023/03/17 08:35:14;;;;;;;8.77;6.00;;;;;;;10.75;57.34;99994.25;6174238;23;20021;-92
2023/03/17 08:37:58;;;;;;;8.60;6.28;;;;;;;10.81;57.09;99999.25;6175008;23;20044;-91
2023/03/17 08:40:39;;;;;;;12.52;6.28;;;;;;;11.21;56.36;100008.50;6174812;23;20024;-91
2023/03/17 08:43:27;;;;;;;9.23;5.75;;;;;;;11.04;54.27;99922.94;6174516;23;20024;-93
2023/03/17 08:46:25;;;;;;;8.65;5.78;;;;;;;10.97;55.52;99987.81;6152139;23;20013;-89
2023/03/17 08:49:04;;;;;;;10.15;6.28;;;;;;;10.42;58.00;99994.25;6173654;23;20037;-91
2023/03/17 08:51:37;;;;;;;7.63;5.75;;;;;;;10.25;60.03;100017.25;6169938;23;20105;-92
2023/03/17 08:54:20;;;;;;;9.65;6.18;;;;;;;9.45;59.40;99949.84;6122985;23;20369;-94
2023/03/17 08:57:07;;;;;;;10.48;6.28;;;;;;;9.73;60.64;100011.94;6178797;23;20024;-91
2023/03/17 09:00:19;;;;;;;9.88;6.97;;;;;;;9.72;61.17;100004.94;6193788;23;20016;-92
2023/03/17 09:03:04;;;;;;;8.18;5.90;;;;;;;9.74;60.95;100008.38;6192787;23;20085;-93
2023/03/17 09:05:32;;;;;;;7.13;5.45;;;;;;;9.72;61.36;99979.34;6182223;23;20032;-93
2023/03/17 09:08:28;;;;;;;;;;;;;;;10.25;60.09;100002.22;6183980;23;20020;-90
2023/03/17 09:11:13;;;;;;;10.32;5.55;;;;;;;9.83;58.45;99900.31;6196318;23;20249;-91
2023/03/17 09:13:46;;;;;;;6.32;4.97;;;;;;;10.78;57.27;100002.06;6171311;23;20013;-91
2023/03/17 09:16:35;;;;;;;6.68;4.90;;;;;;;11.17;56.19;100011.41;6173504;23;20096;-90
2023/03/17 09:19:16;;;;;;;8.98;6.32;;;;;;;11.25;55.57;100003.88;6180086;23;20044;-92
2023/03/17 09:22:07;;;;;;;11.23;6.97;;;;;;;10.78;56.80;99948.22;6195192;23;20060;-91
2023/03/17 09:25:02;;;;;;;10.02;6.63;;;;;;;10.83;57.36;99962.06;6172193;23;20036;-91
2023/03/17 09:27:57;;;;;;;8.82;5.72;;;;;;;11.09;56.28;99958.84;6172342;23;20024;-91
2023/03/17 09:30:56;;;;;;;8.63;5.72;;;;;;;11.20;55.22;99951.13;6154664;23;20066;-92
2023/03/17 09:33:59;;;;;;;7.97;5.43;;;;;;;11.37;54.99;99970.53;6192820;23;20073;-91
2023/03/17 09:36:41;;;;;;;10.88;5.60;;;;;;;11.31;55.53;99979.69;6192281;23;20017;-92
2023/03/17 09:39:13;;;;;;;8.23;5.60;;;;;;;11.36;54.99;99972.31;6167244;23;20017;-90
2023/03/17 09:42:37;;;;;;;8.35;5.50;;;;;;;11.39;54.51;99966.00;6125219;23;20021;-92
2023/03/17 09:45:31;;;;;;;8.95;5.53;;;;;;;11.51;54.31;99968.78;6101213;23;20077;-90
2023/03/17 09:48:51;;;;;;;9.07;4.90;;;;;;;11.70;54.06;99970.38;6169826;23;20102;-91
2023/03/17 09:51:21;;;;;;;;;;;;;;;11.82;53.75;99957.28;6165776;23;20091;-90
2023/03/17 09:54:01;;;;;;;8.10;5.57;;;;;;;11.99;54.65;99963.38;6154867;23;19917;-91
2023/03/17 09:56:33;;;;;;;8.65;5.32;;;;;;;12.10;53.09;99959.16;6159535;23;20036;-91
2023/03/17 09:59:26;;;;;;;8.85;5.60;;;;;;;12.14;53.51;99957.16;6137128;23;20076;-90
2023/03/17 10:02:32;;;;;;;7.78;5.75;;;;;;;12.21;53.36;99954.06;6163041;23;20107;-91
2023/03/17 10:05:38;;;;;;;7.32;5.85;;;;;;;12.35;53.38;99944.38;6137724;23;20022;-91
2023/03/17 10:08:14;;;;;;;6.85;5.88;;;;;;;12.25;53.25;99944.97;6150902;23;20145;-92
2023/03/17 10:11:33;;;;;;;7.97;5.47;;;;;;;11.97;53.00;99939.59;6176837;23;20093;-92
2023/03/17 10:14:34;;;;;;;7.97;5.72;;;;;;;12.00;54.51;99949.16;6164573;23;20494;-91
2023/03/17 10:17:42;;;;;;;7.75;5.60;;;;;;;11.93;54.58;99928.34;6162351;23;20056;-89
2023/03/17 10:20:33;;;;;;;7.32;5.93;;;;;;;12.23;54.43;99954.81;6161852;23;20021;-91
2023/03/17 10:23:14;;;;;;;7.60;5.78;;;;;;;12.26;52.88;99959.09;6140761;23;20052;-92
2023/03/17 10:25:48;;;;;;;8.65;5.68;;;;;;;12.29;53.64;99959.75;6162508;23;20085;-92
2023/03/17 10:28:29;;;;;;;7.38;5.50;;;;;;;12.36;53.36;99946.09;6136824;23;20045;-91
2023/03/17 10:31:31;;;;;;;8.32;6.00;;;;;;;12.49;52.07;99918.69;6154798;23;20353;-91
2023/03/17 10:34:29;;;;;;;7.40;5.45;;;;;;;12.73;52.03;99942.03;6150090;23;20021;-93
2023/03/17 10:37:15;;;;;;;7.70;6.00;;;;;;;12.69;52.16;99928.06;6163775;23;20072;-91
2023/03/17 10:39:58;;;;;;;9.13;5.78;;;;;;;12.75;51.76;99917.03;6166067;23;20045;-89
2023/03/17 10:43:07;;;;;;;7.15;5.45;;;;;;;12.98;52.04;99931.53;6168692;23;20013;-92
2023/03/17 10:45:56;;;;;;;12.27;5.53;;;;;;;13.06;50.34;99900.00;6173719;23;20061;-91
2023/03/17 10:49:08;;;;;;;7.68;6.05;;;;;;;13.06;50.33;99900.00;6178091;23;20013;-93
2023/03/17 10:51:59;;;;;;;9.02;5.45;;;;;;;13.17;50.61;99924.13;6153309;23;20009;-94
2023/03/17 10:54:37;;;;;;;9.02;5.53;;;;;;;13.19;49.95;99932.00;6180691;23;20005;-92
2023/03/17 10:57:14;;;;;;;7.72;5.38;;;;;;;13.28;49.28;99916.28;6169562;23;20890;-87
2023/03/17 10:59:54;;;;;;;7.78;4.75;;;;;;;13.62;49.36;99912.25;6181935;23;20009;-91
2023/03/17 11:03:31;;;;;;;10.05;5.70;;;;;;;13.49;48.98;99858.16;6180635;23;20005;-91
2023/03/17 11:09:39;;;;;;;8.80;5.60;;;;;;;13.81;47.62;99897.69;6157676;23;20032;-90
2023/03/17 11:13:04;;;;;;;11.18;5.43;;;;;;;13.69;48.50;99926.00;6181396;23;20020;-88
2023/03/17 11:16:28;;;;;;;8.07;5.32;;;;;;;13.79;49.25;99908.44;6167201;23;20017;-88
2023/03/17 11:19:25;;;;;;;10.73;5.47;;;;;;;13.97;47.88;99877.91;6109533;23;20017;-89
2023/03/17 11:22:18;;;;;;;8.18;5.63;;;;;;;14.45;46.63;99922.56;6160722;23;20018;-89
2023/03/17 11:25:22;;;;;;;8.55;5.25;;;;;;;14.37;46.27;99897.25;6171332;23;20502;-89
2023/03/17 11:28:17;;;;;;;10.63;5.40;;;;;;;14.62;45.54;99919.56;6173551;23;20029;-89
2023/03/17 11:31:30;;;;;;;8.53;4.70;;;;;;;14.67;46.82;99890.75;6177564;23;20081;-92
2023/03/17 11:34:55;;;;;;;7.95;4.63;;;;;;;15.26;46.89;99906.88;6157200;23;20074;-91
2023/03/17 11:38:12;;;;;;;7.28;4.05;;;;;;;15.48;45.06;99874.97;6173559;23;20084;-92
2023/03/17 11:41:52;;;;;;;7.45;4.32;;;;;;;15.16;43.79;99882.69;6173522;23;20141;-91
2023/03/17 11:45:18;;;;;;;8.20;4.82;;;;;;;14.70;45.42;99898.53;6165510;23;20056;-92
2023/03/17 11:52:25;;;;;;;8.43;4.35;;;;;;;14.59;45.84;99867.31;6104921;23;20020;-92
2023/03/17 11:55:47;;;;;;;5.80;4.22;;;;;;;14.47;47.27;99888.69;6131818;23;20340;-91
2023/03/17 11:59:03;;;;;;;8.23;4.35;;;;;;;14.67;45.72;99880.09;6105866;23;20021;-91
2023/03/17 12:01:53;;;;;;;6.75;3.90;;;;;;;14.63;45.89;99859.97;6112713;23;20546;-92
2023/03/17 12:05:25;;;;;;;6.82;4.38;;;;;;;14.92;45.21;99868.50;6023324;23;20126;-90
2023/03/17 12:08:44;;;;;;;6.10;3.83;;;;;;;15.29;44.72;99863.97;6148494;23;20093;-92
2023/03/17 12:11:35;;;;;;;5.88;4.20;;;;;;;15.26;44.16;99858.88;6172517;23;20010;-91
2023/03/17 12:18:01;;;;;;;7.53;4.43;;;;;;;15.11;44.27;99846.69;6143864;23;20017;-92
2023/03/17 12:21:49;;;;;;;10.27;4.10;;;;;;;15.19;43.98;99854.94;6164023;23;20028;-93
2023/03/17 12:24:42;;;;;;;5.78;3.70;;;;;;;15.40;43.99;99845.34;6129345;23;20048;-91
2023/03/17 12:28:07;;;;;;;9.30;4.90;;;;;;;15.72;43.42;99845.59;6164628;23;20077;-92
2023/03/17 12:34:59;;;;;;;5.72;3.78;;;;;;;15.78;43.23;99783.72;6168214;23;20446;-91
2023/03/17 12:37:45;;;;;;;5.15;4.30;;;;;;;16.18;42.55;99840.19;6163231;23;20025;-92
2023/03/17 12:51:45;;;;;;;6.78;4.10;;;;;;;15.74;43.69;99825.81;4239056;27;25759185;-92
2023/03/17 12:54:35;;;;;;;11.18;4.32;;;;;;;15.49;43.59;99761.06;5096953;28;20044;-92
2023/03/17 13:02:07;;;;;;;8.95;4.60;;;;;;;15.75;44.84;99822.16;5120425;27;20065;-94
2023/03/17 13:05:31;;;;;;;7.18;4.60;;;;;;;15.60;44.85;99823.34;5114211;28;20028;-93
2023/03/17 13:08:33;;;;;;;7.80;5.30;;;;;;;15.07;46.92;99788.25;5114540;28;20036;-91
2023/03/17 13:11:32;;;;;;;9.68;5.50;;;;;;;14.99;47.88;99817.28;5135741;27;20277;-91
2023/03/17 13:14:36;;;;;;;10.02;5.13;;;;;;;14.76;48.28;99793.31;5111371;28;20036;-93
2023/03/17 13:18:04;;;;;;;8.52;4.40;;;;;;;14.78;47.97;99786.91;5112837;28;20039;-92
2023/03/17 13:21:37;;;;;;;9.40;5.60;;;;;;;14.99;47.89;99808.44;5109256;28;20193;-93
2023/03/17 13:25:04;;;;;;;9.82;5.05;;;;;;;15.04;47.83;99799.13;5085895;28;20091;-92
2023/03/17 13:28:29;;;;;;;11.20;5.43;;;;;;;15.17;48.23;99800.88;5066628;28;20041;-93
2023/03/17 13:31:38;;;;;;;10.25;5.28;;;;;;;15.29;47.83;99791.94;5025735;28;20065;-92
2023/03/17 13:35:16;;;;;;;8.38;5.45;;;;;;;15.29;48.32;99778.59;5019466;28;20076;-94
2023/03/17 13:38:57;;;;;;;9.60;5.30;;;;;;;15.53;47.59;99794.56;5031406;28;20216;-89
2023/03/17 13:42:54;;;;;;;9.57;5.47;;;;;;;15.24;47.71;99749.63;5013780;28;20068;-93
2023/03/17 13:45:47;;;;;;;11.20;6.43;;;;;;;15.09;47.87;99724.97;5022648;28;20041;-92